Time;durP1;ratioP1;P1;durP2;ratioP2;P2;SDS_P1;SDS_P2;PMS_P1;PMS_P2;Temp;Humidity;BMP_temperature;BMP_pressure;BME280_temperature;BME280_humidity;BME280_pressure;Samples;Min_cycle;Max_cycle;Signal;HPM_P1;HPM_P2
2021/01/08 00:00:18;;;;;;;22.63;15.02;;;2.10;99.90;;;;;;5062456;28;20340;-84
2021/01/08 00:02:45;;;;;;;26.90;15.30;;;2.30;99.90;;;;;;5061959;28;20198;-85
2021/01/08 00:05:12;;;;;;;24.27;15.10;;;2.30;99.90;;;;;;5061465;28;20245;-84
2021/01/08 00:07:40;;;;;;;22.92;15.60;;;2.30;99.90;;;;;;5062621;28;20260;-84
2021/01/08 00:10:08;;;;;;;27.23;16.23;;;2.30;99.90;;;;;;5062595;28;20229;-84
2021/01/08 00:12:38;;;;;;;23.50;14.45;;;2.20;99.90;;;;;;5062372;28;20293;-84
2021/01/08 00:15:07;;;;;;;24.02;14.40;;;2.10;99.90;;;;;;5062047;28;20233;-84
2021/01/08 00:17:35;;;;;;;25.45;15.20;;;2.10;99.90;;;;;;5063358;28;20199;-84
2021/01/08 00:20:02;;;;;;;23.33;15.25;;;2.10;99.90;;;;;;5064538;28;20206;-84
2021/01/08 00:22:32;;;;;;;29.63;16.13;;;2.10;99.90;;;;;;5065261;28;20344;-84
2021/01/08 00:24:58;;;;;;;25.67;16.65;;;2.10;99.90;;;;;;5069870;28;20241;-84
2021/01/08 00:27:25;;;;;;;26.30;15.63;;;2.10;99.90;;;;;;5076312;28;20183;-84
2021/01/08 00:29:52;;;;;;;23.85;16.27;;;2.10;99.90;;;;;;5075994;28;20240;-84
2021/01/08 00:32:19;;;;;;;28.42;17.88;;;2.10;99.90;;;;;;5075392;28;20234;-83
2021/01/08 00:34:46;;;;;;;28.38;16.25;;;2.30;99.90;;;;;;5061811;28;20322;-84
2021/01/08 00:37:16;;;;;;;25.65;17.52;;;2.30;99.90;;;;;;5062022;28;20603;-83
2021/01/08 00:39:44;;;;;;;25.95;16.30;;;2.30;99.90;;;;;;5061859;28;20210;-84
2021/01/08 00:42:10;;;;;;;30.20;16.40;;;2.30;99.90;;;;;;5061948;28;20203;-84
2021/01/08 00:44:37;;;;;;;27.27;16.65;;;2.40;99.90;;;;;;5062268;28;20234;-85
2021/01/08 00:47:07;;;;;;;30.15;16.17;;;2.40;99.90;;;;;;5061070;28;20298;-83
2021/01/08 00:49:33;;;;;;;27.20;16.85;;;2.40;99.90;;;;;;5060677;28;20273;-87
2021/01/08 00:52:01;;;;;;;29.63;16.83;;;2.50;99.90;;;;;;5062807;28;20271;-83
2021/01/08 00:54:28;;;;;;;26.38;16.55;;;2.50;99.90;;;;;;5063854;28;20650;-83
2021/01/08 00:56:54;;;;;;;26.67;16.02;;;2.40;99.90;;;;;;5064697;28;20569;-84
2021/01/08 00:59:20;;;;;;;29.98;17.25;;;2.40;99.90;;;;;;5062624;28;20203;-83
2021/01/08 01:01:47;;;;;;;25.33;16.23;;;2.30;99.90;;;;;;5067821;28;20203;-84
2021/01/08 01:04:14;;;;;;;26.15;16.27;;;2.20;99.90;;;;;;5070412;28;20215;-82
2021/01/08 01:06:41;;;;;;;22.95;16.40;;;2.20;99.90;;;;;;5072474;28;20203;-84
2021/01/08 01:09:07;;;;;;;28.08;17.15;;;2.30;99.90;;;;;;5074211;28;20242;-84
2021/01/08 01:11:33;;;;;;;28.92;16.83;;;2.20;99.90;;;;;;5073262;28;20203;-83
2021/01/08 01:14:00;;;;;;;27.98;17.25;;;2.30;99.90;;;;;;5073037;28;20286;-82
2021/01/08 01:16:27;;;;;;;26.58;16.35;;;2.30;99.90;;;;;;5073568;28;20225;-82
2021/01/08 01:18:56;;;;;;;21.80;15.52;;;2.30;99.90;;;;;;5075252;28;20198;-83
2021/01/08 01:21:24;;;;;;;27.38;17.40;;;2.20;99.90;;;;;;5071921;28;20211;-83
2021/01/08 01:23:51;;;;;;;27.05;16.60;;;2.20;99.90;;;;;;5070742;28;20251;-82
2021/01/08 01:26:20;;;;;;;28.75;17.55;;;2.20;99.90;;;;;;5073321;28;20202;-84
2021/01/08 01:28:47;;;;;;;25.33;16.05;;;2.20;99.90;;;;;;5071087;28;20230;-85
2021/01/08 01:31:14;;;;;;;30.25;18.20;;;2.10;99.90;;;;;;5061419;28;20222;-85
2021/01/08 01:33:40;;;;;;;30.67;17.85;;;2.10;99.90;;;;;;5059907;28;20231;-85
2021/01/08 01:36:09;;;;;;;26.88;17.73;;;2.10;99.90;;;;;;5060635;28;20226;-85
2021/01/08 01:38:38;;;;;;;27.75;17.15;;;2.20;99.90;;;;;;5062305;28;20213;-86
2021/01/08 01:41:05;;;;;;;26.55;18.13;;;2.20;99.90;;;;;;5060907;28;20211;-85
2021/01/08 01:43:32;;;;;;;31.67;18.23;;;2.30;99.90;;;;;;5060343;28;20756;-86
2021/01/08 01:45:58;;;;;;;27.85;16.95;;;2.30;99.90;;;;;;5060794;28;20207;-85
2021/01/08 01:48:25;;;;;;;23.98;17.13;;;2.30;99.90;;;;;;5059722;28;20203;-86
2021/01/08 01:50:52;;;;;;;24.75;15.55;;;2.20;99.90;;;;;;5059884;28;20202;-85
2021/01/08 01:53:18;;;;;;;26.08;17.23;;;2.10;99.90;;;;;;5059465;28;20195;-86
2021/01/08 01:55:47;;;;;;;26.48;16.17;;;2.20;99.90;;;;;;5060985;28;20742;-85
2021/01/08 01:58:13;;;;;;;27.88;17.23;;;2.10;99.90;;;;;;5061507;28;20213;-85
2021/01/08 02:00:40;;;;;;;26.08;17.63;;;2.10;99.90;;;;;;5060443;28;20255;-86
2021/01/08 02:03:11;;;;;;;27.25;17.88;;;2.10;99.90;;;;;;5061812;28;20340;-85
2021/01/08 02:05:40;;;;;;;30.05;16.33;;;2.10;99.90;;;;;;5060416;28;20257;-86
2021/01/08 02:08:09;;;;;;;28.85;17.50;;;2.10;99.90;;;;;;5059666;28;20256;-86
2021/01/08 02:10:41;;;;;;;29.85;18.55;;;2.10;99.90;;;;;;5061026;28;20244;-85
2021/01/08 02:13:13;;;;;;;31.17;17.88;;;2.10;99.90;;;;;;5059507;28;20192;-86
2021/01/08 02:15:39;;;;;;;26.73;18.00;;;2.10;99.90;;;;;;5059710;28;20248;-86
2021/01/08 02:18:06;;;;;;;27.48;18.00;;;2.10;99.90;;;;;;5059104;28;20202;-86
2021/01/08 02:20:33;;;;;;;29.77;17.85;;;2.10;99.90;;;;;;5062439;28;20209;-85
2021/01/08 02:23:07;;;;;;;26.17;15.95;;;2.00;99.90;;;;;;5059926;28;20206;-86
2021/01/08 02:25:36;;;;;;;24.35;15.75;;;2.10;99.90;;;;;;5059599;28;20230;-86
2021/01/08 02:28:19;;;;;;;26.33;16.27;;;2.00;99.90;;;;;;5060433;28;20294;-86
2021/01/08 02:30:49;;;;;;;27.83;16.50;;;2.10;99.90;;;;;;5059143;28;20199;-85
2021/01/08 02:33:17;;;;;;;26.85;17.27;;;2.10;99.90;;;;;;5058149;28;20273;-85
2021/01/08 02:35:44;;;;;;;27.80;16.13;;;2.10;99.90;;;;;;5058473;28;20306;-85
2021/01/08 02:38:13;;;;;;;25.02;17.05;;;2.10;99.90;;;;;;5059582;28;20298;-84
2021/01/08 02:40:43;;;;;;;27.98;16.48;;;2.10;99.90;;;;;;5059002;28;20230;-84
2021/01/08 02:43:10;;;;;;;26.35;16.30;;;2.00;99.90;;;;;;5058803;28;20208;-85
2021/01/08 02:45:36;;;;;;;25.65;16.00;;;2.00;99.90;;;;;;5058798;28;20225;-85
2021/01/08 02:48:03;;;;;;;25.90;15.60;;;2.00;99.90;;;;;;5058401;28;20294;-85
2021/01/08 02:50:31;;;;;;;29.33;17.48;;;2.10;99.90;;;;;;5058016;28;20218;-85
2021/01/08 02:53:01;;;;;;;26.73;17.25;;;2.10;99.90;;;;;;5059116;28;20213;-84
2021/01/08 02:55:30;;;;;;;29.77;19.10;;;2.00;99.90;;;;;;5058006;28;20230;-85
2021/01/08 02:58:00;;;;;;;28.60;17.67;;;2.00;99.90;;;;;;5058113;28;20207;-85
2021/01/08 03:00:28;;;;;;;27.95;17.00;;;2.00;99.90;;;;;;5058777;28;20202;-85
2021/01/08 03:02:56;;;;;;;28.73;17.45;;;1.90;99.90;;;;;;5061422;28;20203;-84
2021/01/08 03:05:23;;;;;;;24.40;16.27;;;1.90;99.90;;;;;;5063977;28;20234;-84
2021/01/08 03:07:50;;;;;;;26.02;15.90;;;1.80;99.90;;;;;;5064154;28;20586;-84
2021/01/08 03:10:17;;;;;;;31.50;17.90;;;1.90;99.90;;;;;;5064513;28;20291;-85
2021/01/08 03:12:51;;;;;;;33.75;16.60;;;1.90;99.90;;;;;;5063951;28;20237;-85
2021/01/08 03:15:18;;;;;;;27.92;16.67;;;1.90;99.90;;;;;;5061086;28;20306;-85
2021/01/08 03:17:45;;;;;;;26.48;16.48;;;1.90;99.90;;;;;;5060722;28;20234;-84
2021/01/08 03:20:12;;;;;;;29.35;17.63;;;1.80;99.90;;;;;;5060503;28;20678;-84
2021/01/08 03:22:39;;;;;;;27.17;18.30;;;1.80;99.90;;;;;;5059335;28;20199;-84
2021/01/08 03:25:06;;;;;;;28.98;18.15;;;1.80;99.90;;;;;;5058314;28;20420;-85
2021/01/08 03:27:32;;;;;;;28.80;18.08;;;1.90;99.90;;;;;;5057640;28;20207;-84
2021/01/08 03:29:59;;;;;;;27.42;17.30;;;1.90;99.90;;;;;;5058092;28;20219;-84
2021/01/08 03:32:26;;;;;;;28.95;18.30;;;1.80;99.90;;;;;;5057891;28;20203;-85
2021/01/08 03:34:52;;;;;;;30.67;17.95;;;1.80;99.90;;;;;;5057919;28;20330;-85
2021/01/08 03:37:18;;;;;;;24.17;17.58;;;1.70;99.90;;;;;;5058238;28;20237;-84
2021/01/08 03:39:45;;;;;;;27.38;17.75;;;1.80;99.90;;;;;;5057793;28;20577;-85
2021/01/08 03:42:11;;;;;;;31.45;20.58;;;1.70;99.90;;;;;;5056819;28;20199;-85
2021/01/08 03:44:37;;;;;;;25.38;16.48;;;1.80;99.90;;;;;;5057377;28;20658;-85
2021/01/08 03:47:04;;;;;;;35.25;19.83;;;1.80;99.90;;;;;;5057479;28;20203;-85
2021/01/08 03:49:33;;;;;;;25.83;17.55;;;1.70;99.90;;;;;;5057629;28;20219;-85
2021/01/08 03:51:59;;;;;;;31.50;18.85;;;1.70;99.90;;;;;;5058621;28;20257;-85
2021/01/08 03:54:26;;;;;;;30.35;19.63;;;1.70;99.90;;;;;;5058141;28;20305;-85
2021/01/08 03:56:52;;;;;;;25.27;17.80;;;1.70;99.90;;;;;;5056208;28;20270;-86
2021/01/08 03:59:18;;;;;;;35.47;19.45;;;1.70;99.90;;;;;;5054702;28;20285;-85
2021/01/08 04:01:45;;;;;;;33.53;17.95;;;1.60;99.90;;;;;;5054870;28;20206;-84
2021/01/08 04:04:11;;;;;;;32.28;19.65;;;1.80;99.90;;;;;;5054516;28;20231;-85
2021/01/08 04:06:38;;;;;;;29.23;18.92;;;1.80;99.90;;;;;;5054860;28;20207;-85
2021/01/08 04:09:04;;;;;;;30.00;17.92;;;1.80;99.90;;;;;;5055765;28;20294;-86
2021/01/08 04:11:31;;;;;;;32.70;19.27;;;1.80;99.90;;;;;;5058787;28;20205;-86
2021/01/08 04:13:57;;;;;;;34.08;19.58;;;1.80;99.90;;;;;;5059055;28;20219;-85
2021/01/08 04:16:23;;;;;;;30.80;19.42;;;1.80;99.90;;;;;;5059326;28;20277;-85
2021/01/08 04:18:49;;;;;;;32.72;18.30;;;1.90;99.90;;;;;;5060496;28;20207;-86
2021/01/08 04:21:16;;;;;;;34.60;21.55;;;1.90;99.90;;;;;;5059144;28;20450;-85
2021/01/08 04:23:43;;;;;;;31.93;22.00;;;1.90;99.90;;;;;;5059458;28;20837;-85
2021/01/08 04:26:09;;;;;;;34.80;20.08;;;1.80;99.90;;;;;;5060333;28;20448;-85
2021/01/08 04:28:36;;;;;;;31.55;19.98;;;1.70;99.90;;;;;;5061201;28;20229;-85
2021/01/08 04:31:02;;;;;;;28.90;17.60;;;1.70;99.90;;;;;;5063781;28;20275;-85
2021/01/08 04:33:28;;;;;;;32.75;21.00;;;1.70;99.90;;;;;;5073660;28;20214;-85
2021/01/08 04:35:55;;;;;;;38.20;21.65;;;1.60;99.90;;;;;;5073902;28;20439;-84
2021/01/08 04:38:21;;;;;;;32.28;19.88;;;1.60;99.90;;;;;;5062607;28;20203;-85
2021/01/08 04:40:50;;;;;;;29.23;18.48;;;1.60;99.90;;;;;;5060364;28;20202;-84
2021/01/08 04:43:17;;;;;;;35.03;19.70;;;1.70;99.90;;;;;;5060059;28;20203;-85
2021/01/08 04:45:43;;;;;;;35.90;18.88;;;1.60;99.90;;;;;;5059583;28;20209;-85
2021/01/08 04:48:13;;;;;;;31.98;19.15;;;1.70;99.90;;;;;;5059615;28;20574;-85
2021/01/08 04:50:41;;;;;;;34.13;20.65;;;1.60;99.90;;;;;;5058771;28;20707;-85
2021/01/08 04:53:09;;;;;;;34.90;20.88;;;1.50;99.90;;;;;;5058466;28;20526;-85
2021/01/08 04:55:37;;;;;;;28.77;18.00;;;1.60;99.90;;;;;;5058627;28;20219;-85
2021/01/08 04:58:07;;;;;;;32.28;19.40;;;1.60;99.90;;;;;;5059227;28;20645;-85
2021/01/08 05:00:34;;;;;;;30.67;18.85;;;1.60;99.90;;;;;;5062716;28;20251;-85
2021/01/08 05:03:01;;;;;;;38.45;20.67;;;1.60;99.90;;;;;;5073046;28;20222;-84
2021/01/08 05:05:27;;;;;;;31.33;18.90;;;1.60;99.90;;;;;;5067659;28;20704;-86
2021/01/08 05:07:54;;;;;;;36.42;22.63;;;1.60;99.90;;;;;;5058729;28;20440;-85
2021/01/08 05:10:20;;;;;;;31.27;19.55;;;1.60;99.90;;;;;;5060080;28;20489;-84
2021/01/08 05:12:48;;;;;;;43.05;25.08;;;1.60;99.90;;;;;;5059536;28;20207;-85
2021/01/08 05:15:15;;;;;;;34.33;20.13;;;1.60;99.90;;;;;;5059370;28;20227;-86
2021/01/08 05:17:43;;;;;;;33.05;21.33;;;1.60;99.90;;;;;;5059267;28;20215;-85
2021/01/08 05:20:11;;;;;;;33.45;20.83;;;1.60;99.90;;;;;;5058356;28;20440;-86
2021/01/08 05:22:38;;;;;;;34.13;21.23;;;1.50;99.90;;;;;;5057959;28;20210;-85
2021/01/08 05:25:08;;;;;;;30.73;18.80;;;1.60;99.90;;;;;;5059007;28;20230;-85
2021/01/08 05:27:35;;;;;;;33.63;20.33;;;1.50;99.90;;;;;;5058194;28;20493;-85
2021/01/08 05:30:16;;;;;;;33.60;21.67;;;1.60;99.90;;;;;;5075438;28;20514;-84
2021/01/08 05:32:43;;;;;;;33.28;21.13;;;1.70;99.90;;;;;;5078235;28;20222;-85
2021/01/08 05:35:13;;;;;;;32.58;20.52;;;1.70;99.90;;;;;;5078057;28;20291;-85
2021/01/08 05:37:43;;;;;;;38.28;21.20;;;1.70;99.90;;;;;;5079843;28;20167;-87
2021/01/08 05:40:11;;;;;;;40.30;20.00;;;1.60;99.90;;;;;;5079491;28;20203;-86
2021/01/08 05:42:49;;;;;;;35.60;20.80;;;1.60;99.90;;;;;;5076951;28;20194;-85
2021/01/08 05:45:16;;;;;;;32.88;20.92;;;1.80;99.90;;;;;;5076198;28;20226;-85
2021/01/08 05:47:43;;;;;;;33.70;19.77;;;1.70;99.90;;;;;;5079840;28;20215;-86
2021/01/08 05:50:12;;;;;;;34.63;19.65;;;1.70;99.90;;;;;;5079447;28;20234;-87
2021/01/08 05:52:42;;;;;;;29.23;18.63;;;1.70;99.90;;;;;;5079765;28;20230;-88
2021/01/08 05:55:13;;;;;;;35.92;21.50;;;1.60;99.90;;;;;;5079463;28;20218;-85
2021/01/08 05:57:41;;;;;;;30.92;19.00;;;1.60;99.90;;;;;;5070042;28;20275;-85
2021/01/08 06:00:09;;;;;;;34.13;19.60;;;1.60;99.90;;;;;;5073561;28;20206;-85
2021/01/08 06:02:36;;;;;;;38.45;20.90;;;1.60;99.90;;;;;;5072510;28;20203;-85
2021/01/08 06:05:06;;;;;;;30.75;18.67;;;1.60;99.90;;;;;;5073304;28;20234;-85
2021/01/08 06:07:37;;;;;;;36.47;20.75;;;1.60;99.90;;;;;;5073573;28;20263;-85
2021/01/08 06:10:06;;;;;;;30.98;18.88;;;1.70;99.90;;;;;;5070388;28;20211;-85
2021/01/08 06:12:37;;;;;;;35.97;20.13;;;1.70;99.90;;;;;;5070751;28;20226;-85
2021/01/08 06:15:07;;;;;;;34.53;20.88;;;1.70;99.90;;;;;;5071597;28;20250;-85
2021/01/08 06:17:34;;;;;;;32.70;20.00;;;1.70;99.90;;;;;;5071582;28;20234;-85
2021/01/08 06:20:04;;;;;;;35.05;20.42;;;1.70;99.90;;;;;;5072446;28;20195;-85
2021/01/08 06:22:38;;;;;;;32.85;19.45;;;1.90;99.90;;;;;;5072176;28;20254;-86
2021/01/08 06:25:07;;;;;;;32.33;19.58;;;1.80;99.90;;;;;;5070921;28;20242;-85
2021/01/08 06:27:34;;;;;;;37.08;19.88;;;1.70;99.90;;;;;;5072165;28;20233;-85
2021/01/08 06:30:03;;;;;;;34.70;19.85;;;1.70;99.90;;;;;;5071760;28;20252;-84
2021/01/08 06:32:30;;;;;;;35.03;20.80;;;1.70;99.90;;;;;;5073025;28;20226;-84
2021/01/08 06:35:05;;;;;;;38.55;22.73;;;1.70;99.90;;;;;;5075140;28;20262;-84
2021/01/08 06:37:38;;;;;;;31.25;19.35;;;1.70;99.90;;;;;;5076623;28;20190;-85
2021/01/08 06:40:05;;;;;;;32.20;19.80;;;1.70;99.90;;;;;;5076201;28;20187;-85
2021/01/08 06:42:32;;;;;;;33.30;20.10;;;1.70;99.90;;;;;;5075870;28;20266;-85
2021/01/08 06:45:00;;;;;;;34.63;20.92;;;1.70;99.90;;;;;;5075800;28;20282;-85
2021/01/08 06:47:29;;;;;;;36.45;20.65;;;1.70;99.90;;;;;;5076113;28;20652;-84
2021/01/08 06:49:58;;;;;;;32.60;20.00;;;1.70;99.90;;;;;;5075648;28;20239;-86
2021/01/08 06:52:30;;;;;;;34.15;20.70;;;1.60;99.90;;;;;;5075340;28;20183;-86
2021/01/08 06:54:56;;;;;;;37.35;20.20;;;1.60;99.90;;;;;;5072774;28;20261;-85
2021/01/08 06:57:22;;;;;;;32.97;19.77;;;1.50;99.90;;;;;;5069799;28;20232;-85
2021/01/08 06:59:55;;;;;;;35.28;20.15;;;1.60;99.90;;;;;;5068021;28;20266;-85
2021/01/08 07:02:23;;;;;;;30.95;18.75;;;1.60;99.90;;;;;;5064805;28;20203;-85
2021/01/08 07:04:50;;;;;;;33.80;20.15;;;1.60;99.90;;;;;;5062310;28;20218;-85
2021/01/08 07:07:23;;;;;;;37.78;19.92;;;1.60;99.90;;;;;;5066797;28;20636;-86
2021/01/08 07:09:51;;;;;;;34.47;18.65;;;1.60;99.90;;;;;;5060371;28;20213;-86
2021/01/08 07:12:21;;;;;;;34.95;20.75;;;1.60;99.90;;;;;;5059670;28;20203;-85
2021/01/08 07:14:49;;;;;;;33.65;19.95;;;1.60;99.90;;;;;;5058482;28;20227;-85
2021/01/08 07:17:15;;;;;;;31.75;18.20;;;1.50;99.90;;;;;;5058140;28;20209;-84
2021/01/08 07:19:42;;;;;;;36.25;20.02;;;1.70;99.90;;;;;;5058183;28;20370;-84
2021/01/08 07:22:17;;;;;;;36.38;21.48;;;1.70;99.90;;;;;;5059192;28;20298;-85
2021/01/08 07:24:47;;;;;;;34.80;19.08;;;1.70;99.90;;;;;;5059364;28;20232;-85
2021/01/08 07:27:16;;;;;;;33.85;21.58;;;1.70;99.90;;;;;;5058644;28;20207;-85
2021/01/08 07:29:50;;;;;;;33.60;18.98;;;1.80;99.90;;;;;;5057868;28;20226;-85
2021/01/08 07:32:30;;;;;;;31.17;20.88;;;1.90;99.90;;;;;;5057534;28;20264;-85
2021/01/08 07:34:57;;;;;;;33.15;21.10;;;1.90;99.90;;;;;;5058488;28;20227;-85
2021/01/08 07:37:58;;;;;;;35.80;20.63;;;2.00;99.90;;;;;;5059458;28;20580;-85
2021/01/08 07:40:25;;;;;;;30.88;18.33;;;1.90;99.90;;;;;;5067991;28;20186;-85
2021/01/08 07:43:00;;;;;;;37.55;21.23;;;1.80;99.90;;;;;;5072996;28;20211;-84
2021/01/08 07:45:50;;;;;;;34.75;20.48;;;1.70;99.90;;;;;;5076072;28;20226;-84
2021/01/08 07:48:18;;;;;;;39.05;22.20;;;1.60;99.90;;;;;;5076764;28;20255;-86
2021/01/08 07:50:54;;;;;;;31.40;20.27;;;1.60;99.90;;;;;;5074714;28;20226;-86
2021/01/08 07:53:46;;;;;;;36.10;19.55;;;1.50;99.90;;;;;;5068343;28;20209;-86
2021/01/08 07:56:14;;;;;;;32.53;20.40;;;1.50;99.90;;;;;;5062956;28;20203;-86
2021/01/08 07:58:41;;;;;;;30.80;19.08;;;1.50;99.90;;;;;;5062429;28;20290;-86
2021/01/08 08:01:09;;;;;;;28.42;18.83;;;1.60;99.90;;;;;;5062605;28;20285;-85
2021/01/08 08:03:36;;;;;;;33.70;19.55;;;1.50;99.90;;;;;;5062348;28;20310;-85
2021/01/08 08:06:04;;;;;;;33.83;18.60;;;1.60;99.90;;;;;;5059802;28;20207;-86
2021/01/08 08:08:31;;;;;;;36.28;22.20;;;1.60;99.90;;;;;;5060385;28;20293;-85
2021/01/08 08:11:11;;;;;;;36.30;20.50;;;1.70;99.90;;;;;;5062938;28;20271;-86
2021/01/08 08:13:38;;;;;;;32.38;20.67;;;1.60;99.90;;;;;;5060037;28;20305;-85
2021/01/08 08:16:06;;;;;;;35.45;19.55;;;1.60;99.90;;;;;;5060691;28;20581;-85
2021/01/08 08:18:33;;;;;;;39.47;22.10;;;1.70;99.90;;;;;;5060816;28;20205;-85
2021/01/08 08:21:10;;;;;;;38.53;20.85;;;1.90;99.90;;;;;;5068070;28;20210;-85
2021/01/08 08:23:37;;;;;;;32.97;19.92;;;1.90;99.90;;;;;;5072119;28;20226;-86
2021/01/08 08:26:04;;;;;;;34.55;20.70;;;1.90;99.90;;;;;;5073118;28;20266;-86
2021/01/08 08:28:31;;;;;;;37.30;21.73;;;1.80;99.90;;;;;;5071881;28;20203;-86
2021/01/08 08:30:57;;;;;;;40.20;22.13;;;1.70;99.90;;;;;;5068777;28;20365;-85
2021/01/08 08:33:25;;;;;;;33.80;21.08;;;1.80;99.90;;;;;;5073645;28;20690;-86
2021/01/08 08:35:52;;;;;;;35.78;21.15;;;1.80;99.90;;;;;;5076303;28;20192;-84
2021/01/08 08:38:19;;;;;;;35.22;21.23;;;2.00;99.90;;;;;;5077546;28;20210;-85
2021/01/08 08:40:45;;;;;;;35.53;20.63;;;2.10;99.90;;;;;;5076213;28;20201;-85
2021/01/08 08:43:21;;;;;;;38.72;20.55;;;1.90;99.90;;;;;;5074448;28;20341;-84
2021/01/08 08:45:47;;;;;;;37.55;21.52;;;1.90;99.90;;;;;;5074228;28;20206;-86
2021/01/08 08:48:14;;;;;;;34.97;21.77;;;1.90;99.90;;;;;;5074500;28;20238;-85
2021/01/08 08:50:44;;;;;;;36.05;22.90;;;1.90;99.90;;;;;;5072557;28;20283;-85
2021/01/08 08:53:12;;;;;;;36.92;21.00;;;2.10;99.90;;;;;;5073123;28;20206;-85
2021/01/08 08:55:38;;;;;;;39.78;22.30;;;1.90;99.90;;;;;;5072514;28;20230;-85
2021/01/08 08:58:06;;;;;;;38.50;22.25;;;1.90;99.90;;;;;;5073145;28;20214;-85
2021/01/08 09:00:34;;;;;;;36.20;20.23;;;2.00;99.90;;;;;;5074360;28;20230;-84
2021/01/08 09:03:04;;;;;;;41.63;23.10;;;2.00;99.90;;;;;;5073279;28;20229;-85
2021/01/08 09:05:34;;;;;;;39.42;21.80;;;2.00;99.90;;;;;;5073652;28;20718;-84
2021/01/08 09:08:10;;;;;;;34.05;20.00;;;2.10;99.90;;;;;;5066369;28;20218;-86
2021/01/08 09:10:46;;;;;;;33.85;21.20;;;2.00;99.90;;;;;;5059796;28;20215;-85
2021/01/08 09:13:15;;;;;;;33.22;20.60;;;2.20;99.90;;;;;;5058309;28;20186;-85
2021/01/08 09:16:00;;;;;;;36.15;20.88;;;2.30;99.90;;;;;;5057840;28;20243;-85
2021/01/08 09:18:37;;;;;;;35.28;20.83;;;2.20;99.90;;;;;;5057901;28;20183;-86
2021/01/08 09:21:11;;;;;;;33.08;20.00;;;2.10;99.90;;;;;;5058050;28;20183;-85
2021/01/08 09:23:41;;;;;;;33.60;20.23;;;2.10;99.90;;;;;;5058562;28;20225;-85
2021/01/08 09:26:08;;;;;;;34.92;21.58;;;2.00;99.90;;;;;;5059396;28;20279;-85
2021/01/08 09:28:42;;;;;;;34.42;20.60;;;2.10;99.90;;;;;;5057858;28;20225;-85
2021/01/08 09:31:09;;;;;;;35.63;20.58;;;2.10;99.90;;;;;;5057720;28;20219;-85
2021/01/08 09:33:36;;;;;;;34.60;21.58;;;2.10;99.90;;;;;;5060978;28;20219;-85
2021/01/08 09:36:03;;;;;;;34.60;19.63;;;2.00;99.90;;;;;;5075466;28;20703;-84
2021/01/08 09:38:30;;;;;;;33.38;20.13;;;2.20;99.90;;;;;;5070470;28;20257;-85
2021/01/08 09:41:04;;;;;;;35.83;22.25;;;2.30;99.90;;;;;;5058905;28;20223;-85
2021/01/08 09:43:38;;;;;;;35.58;22.77;;;2.20;99.90;;;;;;5059888;28;20245;-85
2021/01/08 09:46:07;;;;;;;37.88;21.00;;;2.20;99.90;;;;;;5059530;28;20218;-85
2021/01/08 09:48:34;;;;;;;36.38;21.08;;;2.30;99.90;;;;;;5057865;28;20698;-85
2021/01/08 09:51:03;;;;;;;34.33;21.15;;;2.40;99.90;;;;;;5058130;28;20214;-85
2021/01/08 09:53:30;;;;;;;32.40;19.83;;;2.30;99.90;;;;;;5058703;28;20203;-86
2021/01/08 09:56:13;;;;;;;32.88;22.02;;;2.20;99.90;;;;;;5060950;28;20774;-85
2021/01/08 09:58:40;;;;;;;36.75;21.02;;;2.20;99.90;;;;;;5067899;28;20203;-86
2021/01/08 10:01:08;;;;;;;32.75;20.35;;;2.20;99.90;;;;;;5059545;28;20237;-86
2021/01/08 10:03:34;;;;;;;35.55;21.45;;;2.20;99.90;;;;;;5068371;28;20243;-86
2021/01/08 10:06:09;;;;;;;33.90;20.67;;;2.20;99.90;;;;;;5067161;28;20231;-86
2021/01/08 10:08:36;;;;;;;33.95;22.08;;;2.10;99.90;;;;;;5071057;28;20244;-86
2021/01/08 10:11:03;;;;;;;39.92;22.35;;;2.10;99.90;;;;;;5063477;28;20222;-85
2021/01/08 10:13:32;;;;;;;31.75;21.90;;;2.30;99.90;;;;;;5059861;28;20292;-86
2021/01/08 10:16:06;;;;;;;33.95;21.38;;;2.30;99.90;;;;;;5061008;28;20289;-85
2021/01/08 10:18:34;;;;;;;32.42;20.85;;;2.50;99.90;;;;;;5058066;28;20213;-85
2021/01/08 10:21:04;;;;;;;36.25;23.50;;;2.50;99.90;;;;;;5060734;28;20238;-84
2021/01/08 10:23:30;;;;;;;38.00;22.13;;;2.20;99.90;;;;;;5056653;28;20623;-86
2021/01/08 10:26:10;;;;;;;33.65;19.92;;;2.30;99.90;;;;;;5058144;28;20191;-85
2021/01/08 10:28:46;;;;;;;34.70;21.20;;;2.50;99.90;;;;;;5057803;28;20643;-86
2021/01/08 10:31:14;;;;;;;34.67;19.55;;;2.50;99.90;;;;;;5058201;28;20203;-87
2021/01/08 10:33:40;;;;;;;30.65;19.70;;;2.40;99.90;;;;;;5057387;28;20735;-85
2021/01/08 10:36:08;;;;;;;36.85;20.58;;;2.40;99.90;;;;;;5059422;28;20222;-88
2021/01/08 10:38:40;;;;;;;32.60;20.00;;;2.40;99.90;;;;;;5061978;28;20226;-88
2021/01/08 10:41:06;;;;;;;37.28;21.85;;;2.50;99.90;;;;;;5060747;28;20213;-85
2021/01/08 10:43:34;;;;;;;34.05;21.00;;;2.60;99.90;;;;;;5056804;28;20286;-85
2021/01/08 10:46:02;;;;;;;33.13;21.00;;;2.50;99.90;;;;;;5060043;28;20250;-85
2021/01/08 10:48:30;;;;;;;36.25;20.58;;;2.50;99.90;;;;;;5058676;28;20203;-86
2021/01/08 10:50:56;;;;;;;33.42;22.40;;;2.50;99.90;;;;;;5057702;28;20314;-85
2021/01/08 10:53:23;;;;;;;32.05;20.23;;;2.30;99.90;;;;;;5066911;28;20290;-84
2021/01/08 10:55:50;;;;;;;33.17;21.52;;;2.50;99.90;;;;;;5070527;28;20262;-85
2021/01/08 10:58:17;;;;;;;33.05;19.73;;;2.50;99.90;;;;;;5072297;28;20205;-85
2021/01/08 11:00:43;;;;;;;30.67;19.10;;;2.60;99.90;;;;;;5067089;28;20199;-86
2021/01/08 11:03:11;;;;;;;28.50;20.02;;;2.60;99.90;;;;;;5064920;28;20199;-85
2021/01/08 11:05:38;;;;;;;41.38;21.73;;;2.50;99.90;;;;;;5063860;28;20230;-87
2021/01/08 11:08:06;;;;;;;31.65;19.05;;;2.40;99.90;;;;;;5063736;28;20202;-85
2021/01/08 11:10:33;;;;;;;32.08;20.88;;;2.40;99.90;;;;;;5068504;28;20718;-84
2021/01/08 11:12:59;;;;;;;35.38;22.02;;;2.50;99.90;;;;;;5071589;28;20225;-84
2021/01/08 11:15:25;;;;;;;36.20;20.70;;;2.60;99.90;;;;;;5076925;28;20270;-83
2021/01/08 11:17:52;;;;;;;38.17;22.30;;;2.60;99.90;;;;;;5078081;28;20191;-84
2021/01/08 11:20:28;;;;;;;33.08;19.65;;;2.50;99.90;;;;;;5080778;28;20213;-83
2021/01/08 11:22:58;;;;;;;37.38;21.35;;;2.60;99.90;;;;;;5082449;28;20197;-84
2021/01/08 11:25:25;;;;;;;32.72;19.90;;;2.60;99.90;;;;;;5082061;28;20219;-84
2021/01/08 11:27:51;;;;;;;32.85;21.15;;;2.50;99.90;;;;;;5082234;28;20238;-83
2021/01/08 11:30:18;;;;;;;35.10;22.95;;;2.50;99.90;;;;;;5081853;28;20226;-85
2021/01/08 11:32:45;;;;;;;29.52;20.05;;;2.40;99.90;;;;;;5081926;28;20190;-83
2021/01/08 11:35:11;;;;;;;32.38;19.25;;;2.50;99.90;;;;;;5081364;28;20207;-85
2021/01/08 11:37:39;;;;;;;32.03;20.15;;;2.60;99.90;;;;;;5081692;28;20330;-85
2021/01/08 11:40:06;;;;;;;35.75;20.60;;;2.70;99.90;;;;;;5081808;28;20199;-84
2021/01/08 11:42:33;;;;;;;34.83;20.85;;;2.70;99.90;;;;;;5079125;28;20203;-86
2021/01/08 11:45:00;;;;;;;31.15;19.38;;;2.50;99.90;;;;;;5061259;28;20632;-86
2021/01/08 11:47:26;;;;;;;32.63;20.23;;;2.50;99.90;;;;;;5061797;28;20267;-85
2021/01/08 11:49:53;;;;;;;35.13;20.63;;;2.70;99.90;;;;;;5074670;28;20234;-86
2021/01/08 11:52:19;;;;;;;29.92;18.85;;;2.70;99.90;;;;;;5060512;28;20615;-86
2021/01/08 11:54:46;;;;;;;32.78;20.45;;;2.70;99.90;;;;;;5059567;28;20223;-86
2021/01/08 11:57:13;;;;;;;28.85;19.30;;;2.60;99.90;;;;;;5061341;28;20208;-86
2021/01/08 11:59:39;;;;;;;37.95;23.20;;;2.60;99.90;;;;;;5065326;28;20237;-84
2021/01/08 12:02:06;;;;;;;32.38;20.88;;;2.60;99.90;;;;;;5073556;28;20266;-85
2021/01/08 12:04:33;;;;;;;34.28;20.52;;;2.60;99.90;;;;;;5062593;28;20273;-85
2021/01/08 12:07:00;;;;;;;32.13;20.23;;;2.70;99.90;;;;;;5061819;28;20210;-85
2021/01/08 12:09:27;;;;;;;37.75;21.75;;;2.70;99.90;;;;;;5059782;28;20238;-85
2021/01/08 12:12:02;;;;;;;34.40;21.55;;;2.80;99.90;;;;;;5060309;28;20225;-84
2021/01/08 12:14:29;;;;;;;34.55;20.17;;;2.70;99.90;;;;;;5059649;28;20287;-85
2021/01/08 12:16:56;;;;;;;37.65;22.25;;;2.70;99.90;;;;;;5063056;28;20198;-85
2021/01/08 12:19:22;;;;;;;32.67;21.33;;;2.60;99.90;;;;;;5060493;28;20207;-85
2021/01/08 12:21:48;;;;;;;37.30;22.17;;;2.60;99.90;;;;;;5060767;28;20647;-85
2021/01/08 12:24:17;;;;;;;31.85;18.85;;;2.60;99.90;;;;;;5067405;28;20219;-86
2021/01/08 12:26:44;;;;;;;30.45;18.42;;;2.50;99.90;;;;;;5060125;28;20282;-85
2021/01/08 12:29:11;;;;;;;28.35;18.92;;;2.50;99.90;;;;;;5060836;28;20202;-85
2021/01/08 12:31:37;;;;;;;31.15;19.27;;;2.50;99.90;;;;;;5062999;28;20229;-86
2021/01/08 12:34:04;;;;;;;28.73;17.90;;;2.50;99.90;;;;;;5066101;28;20676;-85
2021/01/08 12:36:33;;;;;;;35.08;19.33;;;2.70;99.90;;;;;;5078212;28;20222;-84
2021/01/08 12:38:59;;;;;;;27.42;16.52;;;2.70;99.90;;;;;;5079188;28;20194;-85
2021/01/08 12:41:26;;;;;;;27.63;17.00;;;2.60;99.90;;;;;;5078082;28;20222;-85